createdAt,value
2018-03-28T00:01:36.417Z,2.21
2018-03-28T00:04:07.123Z,2.22
2018-03-28T00:06:37.790Z,2.19
2018-03-28T00:09:08.547Z,2.21
2018-03-28T00:11:39.199Z,2.18
2018-03-28T00:14:09.842Z,2.16
2018-03-28T00:16:40.718Z,2.16
2018-03-28T00:19:11.732Z,2.16
2018-03-28T00:21:42.358Z,2.17
2018-03-28T00:24:13.158Z,2.11
2018-03-28T00:26:43.806Z,2.09
2018-03-28T00:29:14.739Z,2.02
2018-03-28T00:31:46.263Z,2.00
2018-03-28T00:34:16.853Z,2.00
2018-03-28T00:36:47.756Z,1.99
2018-03-28T00:39:18.799Z,1.99
2018-03-28T00:41:49.741Z,2.00
2018-03-28T00:44:20.806Z,1.92
2018-03-28T00:46:52.197Z,1.85
2018-03-28T00:49:22.932Z,1.80
2018-03-28T00:51:55.536Z,1.86
2018-03-28T00:54:25.414Z,1.86
2018-03-28T00:56:56.100Z,1.80
2018-03-28T00:59:26.107Z,1.77
2018-03-28T01:01:56.776Z,1.75
2018-03-28T01:04:27.820Z,1.70
2018-03-28T01:06:58.666Z,1.75
2018-03-28T01:09:29.786Z,1.74
2018-03-28T01:12:00.746Z,1.75
2018-03-28T01:14:31.770Z,1.78
2018-03-28T01:17:02.652Z,1.71
2018-03-28T01:19:33.786Z,1.69
2018-03-28T01:22:04.848Z,1.69
2018-03-28T01:24:35.728Z,1.65
2018-03-28T01:27:06.703Z,1.65
2018-03-28T01:29:37.801Z,1.64
2018-03-28T01:32:08.974Z,1.68
2018-03-28T01:34:39.835Z,1.66
2018-03-28T01:37:10.743Z,1.69
2018-03-28T01:39:41.450Z,1.70
2018-03-28T01:42:11.847Z,1.67
2018-03-28T01:44:42.425Z,1.66
2018-03-28T01:47:13.077Z,1.64
2018-03-28T01:49:43.951Z,1.33
2018-03-28T01:52:14.595Z,1.42
2018-03-28T01:54:45.512Z,1.35
2018-03-28T01:57:16.504Z,1.35
2018-03-28T01:59:47.571Z,1.44
2018-03-28T02:02:18.555Z,1.33
2018-03-28T02:04:49.617Z,1.27
2018-03-28T02:07:20.609Z,1.28
2018-03-28T02:09:51.639Z,1.28
2018-03-28T02:12:22.608Z,1.34
2018-03-28T02:14:53.655Z,1.18
2018-03-28T02:17:24.630Z,1.22
2018-03-28T02:19:55.726Z,1.20
2018-03-28T02:22:26.722Z,1.17
2018-03-28T02:25:02.898Z,1.17
2018-03-28T02:27:32.133Z,1.14
2018-03-28T02:30:01.503Z,1.22
2018-03-28T02:32:31.287Z,1.25
2018-03-28T02:35:01.844Z,1.30
2018-03-28T02:37:32.726Z,1.37
2018-03-28T02:40:03.799Z,1.30
2018-03-28T02:42:34.514Z,1.34
2018-03-28T02:45:04.862Z,1.35
2018-03-28T02:47:35.328Z,1.32
2018-03-28T02:50:06.338Z,1.34
2018-03-28T02:52:37.112Z,1.33
2018-03-28T02:55:08.079Z,1.28
2018-03-28T02:57:38.938Z,1.19
2018-03-28T03:00:10.032Z,1.20
2018-03-28T03:02:40.926Z,1.12
2018-03-28T03:05:12.020Z,0.90
2018-03-28T03:07:42.991Z,1.14
2018-03-28T03:10:14.012Z,1.10
2018-03-28T03:12:44.948Z,1.15
2018-03-28T03:15:15.967Z,1.13
2018-03-28T03:17:46.934Z,1.20
2018-03-28T03:20:18.014Z,1.21
2018-03-28T03:22:49.000Z,1.28
2018-03-28T03:25:20.578Z,1.34
2018-03-28T03:27:51.215Z,1.39
2018-03-28T03:30:22.448Z,1.42
2018-03-28T03:32:53.447Z,1.33
2018-03-28T03:35:24.939Z,1.42
2018-03-28T03:37:55.738Z,1.41
2018-03-28T03:40:26.796Z,1.35
2018-03-28T03:42:57.290Z,1.35
2018-03-28T03:45:27.842Z,1.38
2018-03-28T03:47:58.720Z,1.36
2018-03-28T03:50:29.823Z,1.43
2018-03-28T03:53:00.737Z,1.49
2018-03-28T03:55:31.805Z,1.54
2018-03-28T03:58:02.759Z,1.58
2018-03-28T04:00:33.443Z,1.64
2018-03-28T04:03:04.124Z,1.66
2018-03-28T04:05:34.762Z,1.65
2018-03-28T04:08:05.644Z,1.58
2018-03-28T04:10:36.738Z,1.65
2018-03-28T04:13:07.660Z,1.62
2018-03-28T04:15:38.338Z,1.59
2018-03-28T04:18:08.789Z,1.60
2018-03-28T04:20:39.747Z,1.43
2018-03-28T04:23:10.720Z,1.49
2018-03-28T04:25:41.775Z,1.52
2018-03-28T04:28:12.960Z,1.57
2018-03-28T04:30:44.180Z,1.55
2018-03-28T04:33:15.050Z,1.54
2018-03-28T04:35:45.810Z,1.57
2018-03-28T04:38:16.440Z,1.51
2018-03-28T04:40:47.114Z,1.50
2018-03-28T04:43:16.998Z,1.50
2018-03-28T04:45:47.823Z,1.53
2018-03-28T04:48:18.732Z,1.52
2018-03-28T04:50:50.008Z,1.50
2018-03-28T04:53:20.720Z,1.57
2018-03-28T04:55:51.749Z,1.55
2018-03-28T04:58:22.726Z,1.37
2018-03-28T05:00:53.795Z,1.39
2018-03-28T05:03:24.387Z,1.45
2018-03-28T05:05:55.035Z,1.54
2018-03-28T05:08:25.749Z,1.56
2018-03-28T05:10:56.267Z,1.60
2018-03-28T05:13:26.778Z,1.65
2018-03-28T05:15:57.865Z,1.66
2018-03-28T05:18:28.353Z,1.60
2018-03-28T05:20:59.130Z,1.63
2018-03-28T05:23:29.786Z,1.66
2018-03-28T05:26:00.528Z,1.72
2018-03-28T05:28:31.187Z,1.71
2018-03-28T05:31:01.856Z,1.74
2018-03-28T05:33:32.263Z,1.68
2018-03-28T05:36:03.282Z,1.71
2018-03-28T05:38:33.870Z,1.72
2018-03-28T05:41:04.872Z,1.74
2018-03-28T05:43:35.840Z,1.77
2018-03-28T05:46:06.435Z,1.75
2018-03-28T05:48:37.033Z,1.79
2018-03-28T05:51:07.889Z,1.73
2018-03-28T05:53:38.380Z,1.72
2018-03-28T05:56:08.846Z,1.80
2018-03-28T05:58:39.721Z,1.74
2018-03-28T06:01:10.459Z,1.79
2018-03-28T06:03:41.452Z,1.83
2018-03-28T06:06:12.512Z,1.88
2018-03-28T06:08:43.508Z,1.99
2018-03-28T06:11:14.219Z,2.03
2018-03-28T06:13:44.720Z,2.05
2018-03-28T06:16:15.779Z,2.05
2018-03-28T06:18:46.743Z,2.12
2018-03-28T06:21:17.472Z,2.09
2018-03-28T06:23:48.141Z,2.04
2018-03-28T06:26:18.050Z,2.08
2018-03-28T06:28:48.706Z,2.09
2018-03-28T06:31:19.256Z,2.19
2018-03-28T06:33:49.793Z,2.23
2018-03-28T06:36:20.689Z,2.29
2018-03-28T06:38:51.644Z,2.19
2018-03-28T06:41:22.362Z,2.31
2018-03-28T06:43:53.012Z,2.38
2018-03-28T06:46:23.804Z,2.39
2018-03-28T06:48:54.638Z,2.47
2018-03-28T06:51:25.739Z,2.51
2018-03-28T06:53:56.707Z,2.65
2018-03-28T06:56:27.754Z,2.74
2018-03-28T06:58:58.749Z,2.85
2018-03-28T07:01:35.090Z,2.91
2018-03-28T07:04:04.363Z,3.00
2018-03-28T07:06:33.873Z,3.04
2018-03-28T07:09:03.302Z,3.12
2018-03-28T07:11:33.920Z,3.18
2018-03-28T07:14:04.733Z,3.24
2018-03-28T07:16:35.860Z,3.25
2018-03-28T07:19:06.726Z,3.33
2018-03-28T07:21:37.702Z,3.48
2018-03-28T07:24:08.435Z,3.46
2018-03-28T07:26:39.548Z,3.59
2018-03-28T07:29:10.548Z,3.68
2018-03-28T07:31:42.208Z,3.71
2018-03-28T07:34:12.879Z,3.84
2018-03-28T07:36:43.756Z,3.91
2018-03-28T07:39:14.768Z,3.94
2018-03-28T07:41:45.708Z,4.02
2018-03-28T07:44:16.745Z,4.10
2018-03-28T07:46:47.726Z,4.18
2018-03-28T07:49:18.688Z,4.28
2018-03-28T07:51:49.861Z,4.26
2018-03-28T07:54:20.701Z,4.37
2018-03-28T07:56:51.885Z,4.39
2018-03-28T07:59:22.418Z,4.41
2018-03-28T08:01:53.093Z,4.46
2018-03-28T08:04:23.815Z,4.58
2018-03-28T08:06:55.663Z,4.57
2018-03-28T08:09:26.294Z,4.56
2018-03-28T08:11:56.786Z,4.54
2018-03-28T08:14:27.701Z,4.58
2018-03-28T08:16:58.774Z,4.66
2018-03-28T08:19:29.699Z,4.73
2018-03-28T08:22:00.740Z,4.73
2018-03-28T08:24:31.673Z,4.80
2018-03-28T08:27:03.067Z,4.87
2018-03-28T08:29:33.790Z,4.83
2018-03-28T08:32:04.323Z,4.88
2018-03-28T08:34:34.852Z,4.86
2018-03-28T08:37:05.744Z,4.97
2018-03-28T08:39:36.750Z,4.98
2018-03-28T08:42:07.749Z,4.97
2018-03-28T08:44:38.752Z,5.07
2018-03-28T08:47:09.890Z,5.10
2018-03-28T08:49:40.720Z,5.16
2018-03-28T08:52:11.962Z,5.23
2018-03-28T08:54:42.489Z,5.25
2018-03-28T08:57:13.582Z,5.37
2018-03-28T08:59:44.587Z,5.48
2018-03-28T09:02:15.751Z,5.44
2018-03-28T09:04:46.817Z,5.50
2018-03-28T09:07:17.817Z,5.52
2018-03-28T09:09:48.372Z,5.49
2018-03-28T09:12:19.154Z,5.60
2018-03-28T09:14:49.822Z,5.62
2018-03-28T09:17:20.822Z,5.53
2018-03-28T09:19:51.699Z,5.65
2018-03-28T09:22:22.390Z,5.74
2018-03-28T09:24:53.140Z,5.77
2018-03-28T09:27:23.850Z,5.77
2018-03-28T09:29:54.756Z,5.80
2018-03-28T09:32:25.471Z,5.85
2018-03-28T09:34:56.185Z,5.86
2018-03-28T09:37:26.853Z,5.85
2018-03-28T09:39:57.704Z,5.90
2018-03-28T09:42:28.760Z,5.89
2018-03-28T09:44:59.664Z,5.90
2018-03-28T09:47:30.763Z,5.84
2018-03-28T09:50:01.650Z,5.92
2018-03-28T09:52:32.824Z,5.92
2018-03-28T09:55:03.702Z,5.96
2018-03-28T09:57:34.408Z,5.92
2018-03-28T10:00:04.515Z,5.98
2018-03-28T10:02:41.102Z,5.99
2018-03-28T10:05:11.375Z,5.97
2018-03-28T10:07:40.667Z,6.00
2018-03-28T10:10:10.608Z,6.09
2018-03-28T10:12:40.140Z,6.06
2018-03-28T10:15:10.877Z,6.18
2018-03-28T10:17:41.769Z,6.30
2018-03-28T10:20:12.861Z,6.36
2018-03-28T10:22:43.783Z,6.43
2018-03-28T10:25:14.901Z,6.49
2018-03-28T10:27:45.432Z,6.53
2018-03-28T10:30:16.178Z,6.62
2018-03-28T10:32:46.818Z,6.58
2018-03-28T10:35:17.768Z,6.55
2018-03-28T10:37:48.787Z,6.65
2018-03-28T10:40:19.813Z,6.79
2018-03-28T10:42:50.721Z,6.86
2018-03-28T10:45:21.806Z,6.92
2018-03-28T10:47:52.690Z,7.08
2018-03-28T10:50:23.759Z,7.14
2018-03-28T10:52:54.672Z,7.17
2018-03-28T10:55:25.735Z,7.25
2018-03-28T10:57:56.715Z,7.31
2018-03-28T11:00:27.767Z,7.39
2018-03-28T11:02:59.087Z,7.47
2018-03-28T11:05:29.927Z,7.49
2018-03-28T11:08:00.771Z,7.43
2018-03-28T11:10:31.776Z,7.52
2018-03-28T11:13:02.348Z,7.53
2018-03-28T11:15:32.913Z,7.71
2018-03-28T11:18:03.719Z,7.77
2018-03-28T11:20:34.514Z,7.83
2018-03-28T11:23:05.182Z,7.94
2018-03-28T11:25:35.857Z,8.00
2018-03-28T11:28:06.766Z,8.02
2018-03-28T11:30:37.728Z,8.10
2018-03-28T11:33:08.670Z,8.14
2018-03-28T11:35:39.728Z,8.20
2018-03-28T11:38:14.488Z,8.14
2018-03-28T11:40:43.998Z,8.21
2018-03-28T11:43:13.320Z,8.25
2018-03-28T11:45:44.135Z,8.28
2018-03-28T11:48:14.852Z,8.40
2018-03-28T11:50:45.792Z,8.48
2018-03-28T11:53:16.676Z,8.45
2018-03-28T11:55:47.739Z,8.57
2018-03-28T11:58:21.682Z,8.71
2018-03-28T12:00:51.259Z,8.71
2018-03-28T12:03:20.524Z,8.79
2018-03-28T12:05:51.334Z,8.81
2018-03-28T12:08:22.057Z,8.84
2018-03-28T12:10:52.166Z,8.83
2018-03-28T12:13:22.778Z,8.90
2018-03-28T12:15:53.417Z,8.86
2018-03-28T12:18:24.044Z,8.93
2018-03-28T12:20:54.862Z,9.05
2018-03-28T12:23:28.019Z,9.04
2018-03-28T12:25:57.477Z,9.15
2018-03-28T12:28:28.402Z,9.11
2018-03-28T12:30:59.199Z,9.19
2018-03-28T12:33:29.751Z,9.18
2018-03-28T12:36:00.834Z,9.27
2018-03-28T12:38:31.686Z,9.26
2018-03-28T12:41:02.762Z,9.34
2018-03-28T12:43:33.394Z,9.21
2018-03-28T12:46:04.094Z,9.23
2018-03-28T12:48:34.710Z,9.31
2018-03-28T12:51:05.811Z,9.36
2018-03-28T12:53:36.684Z,9.44
2018-03-28T12:56:07.786Z,9.45
2018-03-28T12:58:38.416Z,9.56
2018-03-28T13:01:09.137Z,9.63
2018-03-28T13:03:39.815Z,9.70
2018-03-28T13:06:10.829Z,9.64
2018-03-28T13:08:41.746Z,9.77
2018-03-28T13:11:12.892Z,9.81
2018-03-28T13:13:43.736Z,9.81
2018-03-28T13:16:14.724Z,9.79
2018-03-28T13:18:45.699Z,9.75
2018-03-28T13:21:16.390Z,9.79
2018-03-28T13:26:29.074Z,9.70
2018-03-28T13:28:58.308Z,9.77
2018-03-28T13:31:27.669Z,9.72
2018-03-28T13:33:57.092Z,9.72
2018-03-28T13:36:26.405Z,9.63
2018-03-28T13:38:55.658Z,9.67
2018-03-28T13:41:25.040Z,9.60
2018-03-28T13:43:56.056Z,9.66
2018-03-28T13:46:26.189Z,9.67
2018-03-28T13:48:56.741Z,9.62
2018-03-28T13:51:27.808Z,9.64
2018-03-28T13:53:59.455Z,9.54
2018-03-28T13:56:30.131Z,9.53
2018-03-28T13:59:00.715Z,9.53
2018-03-28T14:01:31.374Z,9.52
2018-03-28T14:04:02.087Z,9.54
2018-03-28T14:06:32.918Z,9.56
2018-03-28T14:09:03.759Z,9.50
2018-03-28T14:11:36.237Z,9.54
2018-03-28T14:14:06.143Z,9.45
2018-03-28T14:16:36.847Z,9.52
2018-03-28T14:19:07.701Z,9.43
2018-03-28T14:21:38.735Z,9.32
2018-03-28T14:24:09.746Z,9.29
2018-03-28T14:26:40.795Z,9.21
2018-03-28T14:29:11.653Z,9.21
2018-03-28T14:31:43.384Z,9.30
2018-03-28T14:34:14.099Z,9.18
2018-03-28T14:36:44.085Z,9.09
2018-03-28T14:39:14.945Z,9.14
2018-03-28T14:41:45.836Z,9.16
2018-03-28T14:44:16.647Z,9.20
2018-03-28T14:46:47.750Z,9.25
2018-03-28T14:49:18.763Z,9.19
2018-03-28T14:51:49.881Z,9.24
2018-03-28T14:54:20.760Z,9.15
2018-03-28T14:56:51.865Z,9.14
2018-03-28T14:59:22.771Z,9.03
2018-03-28T15:01:53.839Z,8.96
2018-03-28T15:04:24.717Z,9.04
2018-03-28T15:06:55.768Z,9.09
2018-03-28T15:09:26.772Z,9.10
2018-03-28T15:11:57.788Z,9.01
2018-03-28T15:14:30.336Z,9.05
2018-03-28T15:16:59.723Z,9.02
2018-03-28T15:19:30.382Z,8.92
2018-03-28T15:22:01.152Z,8.98
2018-03-28T15:24:31.839Z,9.10
2018-03-28T15:27:03.154Z,9.13
2018-03-28T15:29:33.813Z,9.19
2018-03-28T15:32:05.421Z,9.18
2018-03-28T15:34:36.041Z,9.17
2018-03-28T15:37:06.827Z,9.08
2018-03-28T15:39:37.431Z,9.08
2018-03-28T15:42:08.169Z,9.04
2018-03-28T15:44:38.724Z,9.04
2018-03-28T15:47:09.924Z,8.95
2018-03-28T15:49:40.692Z,8.82
2018-03-28T15:52:11.804Z,8.87
2018-03-28T15:54:42.840Z,8.86
2018-03-28T15:57:13.756Z,8.92
2018-03-28T15:59:44.652Z,9.00
2018-03-28T16:02:15.732Z,8.94
2018-03-28T16:04:46.736Z,9.00
2018-03-28T16:07:17.637Z,9.00
2018-03-28T16:09:49.303Z,8.91
2018-03-28T16:12:20.160Z,8.76
2018-03-28T16:14:50.426Z,8.82
2018-03-28T16:17:21.118Z,8.60
2018-03-28T16:19:51.735Z,8.46
2018-03-28T16:22:22.788Z,8.39
2018-03-28T16:24:53.700Z,8.41
2018-03-28T16:27:24.785Z,8.31
2018-03-28T16:29:55.656Z,8.27
2018-03-28T16:32:26.727Z,8.15
2018-03-28T16:34:57.714Z,8.15
2018-03-28T16:37:28.784Z,8.05
2018-03-28T16:39:59.803Z,8.08
2018-03-28T16:42:30.908Z,7.96
2018-03-28T16:45:01.747Z,7.95
2018-03-28T16:47:32.859Z,7.90
2018-03-28T16:50:03.694Z,7.84
2018-03-28T16:52:34.811Z,7.81
2018-03-28T16:55:05.419Z,7.81
2018-03-28T16:57:36.149Z,7.69
2018-03-28T17:00:06.849Z,7.68
2018-03-28T17:02:37.735Z,7.62
2018-03-28T17:05:08.752Z,7.60
2018-03-28T17:07:39.885Z,7.50
2018-03-28T17:10:10.753Z,7.64
2018-03-28T17:12:41.862Z,7.55
2018-03-28T17:15:12.726Z,7.54
2018-03-28T17:17:43.718Z,7.51
2018-03-28T17:20:14.731Z,7.40
2018-03-28T17:22:45.782Z,7.31
2018-03-28T17:25:16.822Z,7.30
2018-03-28T17:27:47.817Z,7.34
2018-03-28T17:30:18.655Z,7.40
2018-03-28T17:32:49.735Z,7.41
2018-03-28T17:35:20.392Z,7.40
2018-03-28T17:37:51.177Z,7.35
2018-03-28T17:40:21.846Z,7.35
2018-03-28T17:42:52.820Z,7.34
2018-03-28T17:45:23.695Z,7.30
2018-03-28T17:47:54.800Z,7.24
2018-03-28T17:50:26.152Z,7.31
2018-03-28T17:52:57.194Z,7.21
2018-03-28T17:55:28.100Z,7.21
2018-03-28T17:57:58.812Z,7.31
2018-03-28T18:00:29.508Z,7.28
2018-03-28T18:03:00.646Z,7.33
2018-03-28T18:05:31.649Z,7.44
2018-03-28T18:08:02.756Z,7.36
2018-03-28T18:10:33.759Z,7.24
2018-03-28T18:13:04.761Z,7.31
2018-03-28T18:15:35.722Z,7.32
2018-03-28T18:18:06.728Z,7.17
2018-03-28T18:20:37.341Z,7.20
2018-03-28T18:23:08.128Z,7.22
2018-03-28T18:25:38.843Z,7.17
2018-03-28T18:28:09.923Z,7.19
2018-03-28T18:30:40.802Z,7.24
2018-03-28T18:33:11.802Z,7.28
2018-03-28T18:35:42.700Z,7.20
2018-03-28T18:38:13.771Z,7.21
2018-03-28T18:40:44.390Z,7.28
2018-03-28T18:43:15.374Z,7.24
2018-03-28T18:45:46.064Z,7.23
2018-03-28T18:48:17.636Z,7.22
2018-03-28T18:50:49.734Z,7.24
2018-03-28T18:53:19.613Z,7.22
2018-03-28T18:55:50.396Z,7.25
2018-03-28T18:58:21.046Z,7.33
2018-03-28T19:00:51.839Z,7.25
2018-03-28T19:03:22.475Z,7.22
2018-03-28T19:05:53.586Z,7.23
2018-03-28T19:08:24.527Z,7.29
2018-03-28T19:10:55.262Z,7.28
2018-03-28T19:13:25.810Z,7.21
2018-03-28T19:15:56.880Z,7.25
2018-03-28T19:18:27.738Z,7.26
2018-03-28T19:20:58.936Z,7.15
2018-03-28T19:23:29.772Z,7.24
2018-03-28T19:26:00.848Z,7.35
2018-03-28T19:28:31.710Z,7.35
2018-03-28T19:31:02.797Z,7.37
2018-03-28T19:33:33.864Z,7.30
2018-03-28T19:36:04.803Z,7.31
2018-03-28T19:38:35.505Z,7.29
2018-03-28T19:41:06.354Z,7.28
2018-03-28T19:43:36.106Z,7.27
2018-03-28T19:46:06.901Z,7.30
2018-03-28T19:48:37.703Z,7.23
2018-03-28T19:51:08.864Z,7.35
2018-03-28T19:53:39.663Z,7.25
2018-03-28T19:56:10.778Z,7.23
2018-03-28T19:58:41.656Z,7.24
2018-03-28T20:01:12.858Z,7.21
2018-03-28T20:03:43.334Z,7.17
2018-03-28T20:06:14.114Z,7.26
2018-03-28T20:08:45.090Z,7.25
2018-03-28T20:11:16.254Z,7.22
2018-03-28T20:13:46.082Z,7.16
2018-03-28T20:16:16.807Z,7.24
2018-03-28T20:18:47.356Z,7.22
2018-03-28T20:21:18.092Z,7.19
2018-03-28T20:23:48.751Z,7.13
2018-03-28T20:26:19.827Z,7.15
2018-03-28T20:28:50.734Z,6.95
2018-03-28T20:31:21.840Z,7.16
2018-03-28T20:33:52.782Z,7.09
2018-03-28T20:36:23.777Z,7.16
2018-03-28T20:38:54.634Z,7.14
2018-03-28T20:41:25.689Z,7.16
2018-03-28T20:43:56.701Z,7.09
2018-03-28T20:46:27.777Z,7.07
2018-03-28T20:48:58.793Z,7.07
2018-03-28T20:51:29.837Z,7.09
2018-03-28T20:54:00.705Z,7.11
2018-03-28T20:56:31.787Z,7.12
2018-03-28T20:59:02.980Z,7.11
2018-03-28T21:01:33.816Z,7.13
2018-03-28T21:04:04.855Z,7.14
2018-03-28T21:06:35.329Z,7.12
2018-03-28T21:09:05.469Z,7.14
2018-03-28T21:11:36.637Z,7.15
2018-03-28T21:14:07.605Z,7.12
2018-03-28T21:16:38.228Z,7.07
2018-03-28T21:19:08.488Z,7.12
2018-03-28T21:21:40.797Z,7.04
2018-03-28T21:24:11.256Z,7.14
2018-03-28T21:26:41.760Z,7.15
2018-03-28T21:29:12.633Z,7.20
2018-03-28T21:31:43.622Z,7.04
2018-03-28T21:34:14.637Z,7.18
2018-03-28T21:36:46.441Z,7.26
2018-03-28T21:39:16.069Z,7.27
2018-03-28T21:41:46.859Z,7.31
2018-03-28T21:44:17.710Z,7.35
2018-03-28T21:46:48.703Z,7.51
2018-03-28T21:49:19.630Z,7.51
2018-03-28T21:51:50.867Z,7.59
2018-03-28T21:54:21.709Z,7.61
2018-03-28T21:56:52.822Z,7.64
2018-03-28T21:59:23.788Z,7.55
2018-03-28T22:01:54.768Z,7.60
2018-03-28T22:04:25.400Z,7.61
2018-03-28T22:06:56.058Z,7.66
2018-03-28T22:09:26.748Z,7.59
2018-03-28T22:11:57.812Z,7.59
2018-03-28T22:14:28.683Z,7.61
2018-03-28T22:16:59.315Z,7.60
2018-03-28T22:19:29.724Z,7.53
2018-03-28T22:22:00.480Z,7.47
2018-03-28T22:24:31.231Z,7.56
2018-03-28T22:27:01.716Z,7.45
2018-03-28T22:29:32.657Z,7.48
2018-03-28T22:32:04.260Z,7.40
2018-03-28T22:34:34.713Z,7.29
2018-03-28T22:37:05.691Z,7.45
2018-03-28T22:39:36.659Z,7.41
2018-03-28T22:42:07.946Z,7.38
2018-03-28T22:44:38.339Z,7.32
2018-03-28T22:47:09.037Z,7.29
2018-03-28T22:49:39.785Z,7.27
2018-03-28T22:52:10.871Z,7.14
2018-03-28T22:54:41.678Z,7.14
2018-03-28T22:57:12.724Z,7.13
2018-03-28T22:59:43.648Z,7.18
2018-03-28T23:02:14.661Z,7.12
2018-03-28T23:04:45.579Z,7.03
2018-03-28T23:07:16.623Z,7.01
2018-03-28T23:09:47.552Z,7.11
2018-03-28T23:12:18.366Z,7.03
2018-03-28T23:14:49.072Z,7.10
2018-03-28T23:17:19.697Z,7.14
2018-03-28T23:19:50.695Z,7.13
2018-03-28T23:22:32.629Z,7.11
2018-03-28T23:25:01.992Z,7.12
2018-03-28T23:27:30.965Z,6.99
2018-03-28T23:30:00.325Z,7.07
2018-03-28T23:32:29.573Z,7.16
2018-03-28T23:34:58.847Z,7.24
2018-03-28T23:37:28.160Z,7.14
2018-03-28T23:39:58.068Z,7.04
2018-03-28T23:42:28.792Z,7.01
2018-03-28T23:44:59.805Z,7.07
2018-03-28T23:47:30.484Z,7.12
2018-03-28T23:50:01.088Z,7.11
2018-03-28T23:52:31.927Z,7.06
2018-03-28T23:55:02.936Z,7.07
2018-03-28T23:57:33.797Z,7.15
